sensor_id;sensor_type;location;lat;lon;timestamp;pressure;altitude;pressure_sealevel;temperature;humidity
64078;BME280;51039;49.696;10.808;2024-01-25T00:02:09;67018.31;;;-144.09;100.00
64078;BME280;51039;49.696;10.808;2024-01-25T00:04:34;67018.31;;;-144.09;100.00
64078;BME280;51039;49.696;10.808;2024-01-25T00:07:00;67018.31;;;-144.09;100.00
64078;BME280;51039;49.696;10.808;2024-01-25T00:09:25;67018.31;;;-144.09;100.00
64078;BME280;51039;49.696;10.808;2024-01-25T00:11:50;67018.31;;;-144.09;100.00
64078;BME280;51039;49.696;10.808;2024-01-25T00:14:15;67018.31;;;-144.09;100.00
64078;BME280;51039;49.696;10.808;2024-01-25T00:16:41;67018.31;;;-144.09;100.00
64078;BME280;51039;49.696;10.808;2024-01-25T00:19:06;67018.31;;;-144.09;100.00
64078;BME280;51039;49.696;10.808;2024-01-25T00:21:32;67018.31;;;-144.09;100.00
64078;BME280;51039;49.696;10.808;2024-01-25T00:23:57;67018.31;;;-144.09;100.00
64078;BME280;51039;49.696;10.808;2024-01-25T00:26:22;67018.31;;;-144.09;100.00
64078;BME280;51039;49.696;10.808;2024-01-25T00:28:47;67018.31;;;-144.09;100.00
64078;BME280;51039;49.696;10.808;2024-01-25T00:31:13;67018.31;;;-144.09;100.00
64078;BME280;51039;49.696;10.808;2024-01-25T00:33:38;67018.31;;;-144.09;100.00
64078;BME280;51039;49.696;10.808;2024-01-25T00:36:03;67018.31;;;-144.09;100.00
64078;BME280;51039;49.696;10.808;2024-01-25T00:38:29;67018.31;;;-144.09;100.00
64078;BME280;51039;49.696;10.808;2024-01-25T00:40:54;67018.31;;;-144.09;100.00
64078;BME280;51039;49.696;10.808;2024-01-25T00:43:19;67018.31;;;-144.09;100.00
64078;BME280;51039;49.696;10.808;2024-01-25T00:45:45;67018.31;;;-144.09;100.00
64078;BME280;51039;49.696;10.808;2024-01-25T00:48:11;67018.31;;;-144.09;100.00
64078;BME280;51039;49.696;10.808;2024-01-25T00:50:37;67018.31;;;-144.09;100.00
64078;BME280;51039;49.696;10.808;2024-01-25T00:53:02;67018.31;;;-144.09;100.00
64078;BME280;51039;49.696;10.808;2024-01-25T00:55:28;67018.31;;;-144.09;100.00
64078;BME280;51039;49.696;10.808;2024-01-25T00:57:53;67018.31;;;-144.09;100.00
64078;BME280;51039;49.696;10.808;2024-01-25T01:00:19;67018.31;;;-144.09;100.00
64078;BME280;51039;49.696;10.808;2024-01-25T01:02:46;67018.31;;;-144.09;100.00
64078;BME280;51039;49.696;10.808;2024-01-25T01:05:11;67018.31;;;-144.09;100.00
64078;BME280;51039;49.696;10.808;2024-01-25T01:07:37;67018.31;;;-144.09;100.00
64078;BME280;51039;49.696;10.808;2024-01-25T01:10:02;67018.31;;;-144.09;100.00
64078;BME280;51039;49.696;10.808;2024-01-25T01:12:28;67018.31;;;-144.09;100.00
64078;BME280;51039;49.696;10.808;2024-01-25T01:14:53;67018.31;;;-144.09;100.00
64078;BME280;51039;49.696;10.808;2024-01-25T01:17:18;67018.31;;;-144.09;100.00
64078;BME280;51039;49.696;10.808;2024-01-25T01:19:44;67018.31;;;-144.09;100.00
64078;BME280;51039;49.696;10.808;2024-01-25T01:22:09;67018.31;;;-144.09;100.00
64078;BME280;51039;49.696;10.808;2024-01-25T01:24:34;67018.31;;;-144.09;100.00
64078;BME280;51039;49.696;10.808;2024-01-25T01:27:00;67018.31;;;-144.09;100.00
64078;BME280;51039;49.696;10.808;2024-01-25T01:29:25;67018.31;;;-144.09;100.00
64078;BME280;51039;49.696;10.808;2024-01-25T01:31:50;67018.31;;;-144.09;100.00
64078;BME280;51039;49.696;10.808;2024-01-25T01:34:15;67018.31;;;-144.09;100.00
64078;BME280;51039;49.696;10.808;2024-01-25T01:36:42;67018.31;;;-144.09;100.00
64078;BME280;51039;49.696;10.808;2024-01-25T01:39:07;67018.31;;;-144.09;100.00
64078;BME280;51039;49.696;10.808;2024-01-25T01:41:32;67018.31;;;-144.09;100.00
64078;BME280;51039;49.696;10.808;2024-01-25T01:43:58;67018.31;;;-144.09;100.00
64078;BME280;51039;49.696;10.808;2024-01-25T01:48:51;67018.31;;;-144.09;100.00
64078;BME280;51039;49.696;10.808;2024-01-25T01:51:16;67018.31;;;-144.09;100.00
64078;BME280;51039;49.696;10.808;2024-01-25T01:53:42;67018.31;;;-144.09;100.00
64078;BME280;51039;49.696;10.808;2024-01-25T01:56:07;67018.31;;;-144.09;100.00
64078;BME280;51039;49.696;10.808;2024-01-25T01:58:33;67018.31;;;-144.09;100.00
64078;BME280;51039;49.696;10.808;2024-01-25T02:00:59;67018.31;;;-144.09;100.00
64078;BME280;51039;49.696;10.808;2024-01-25T02:03:24;67018.31;;;-144.09;100.00
64078;BME280;51039;49.696;10.808;2024-01-25T02:05:49;67018.31;;;-144.09;100.00
64078;BME280;51039;49.696;10.808;2024-01-25T02:08:14;67018.31;;;-144.09;100.00
64078;BME280;51039;49.696;10.808;2024-01-25T02:10:40;67018.31;;;-144.09;100.00
64078;BME280;51039;49.696;10.808;2024-01-25T02:13:05;67018.31;;;-144.09;100.00
64078;BME280;51039;49.696;10.808;2024-01-25T02:15:30;67018.31;;;-144.09;100.00
64078;BME280;51039;49.696;10.808;2024-01-25T02:17:55;67018.31;;;-144.09;100.00
64078;BME280;51039;49.696;10.808;2024-01-25T02:20:21;67018.31;;;-144.09;100.00
64078;BME280;51039;49.696;10.808;2024-01-25T02:22:46;67018.31;;;-144.09;100.00
64078;BME280;51039;49.696;10.808;2024-01-25T02:25:11;67018.31;;;-144.09;100.00
64078;BME280;51039;49.696;10.808;2024-01-25T02:27:36;67018.31;;;-144.09;100.00
64078;BME280;51039;49.696;10.808;2024-01-25T02:30:04;67018.31;;;-144.09;100.00
64078;BME280;51039;49.696;10.808;2024-01-25T02:32:30;67018.31;;;-144.09;100.00
64078;BME280;51039;49.696;10.808;2024-01-25T02:34:55;67018.31;;;-144.09;100.00
64078;BME280;51039;49.696;10.808;2024-01-25T02:37:20;67018.31;;;-144.09;100.00
64078;BME280;51039;49.696;10.808;2024-01-25T02:39:45;67018.31;;;-144.09;100.00
64078;BME280;51039;49.696;10.808;2024-01-25T02:42:10;67018.31;;;-144.09;100.00
64078;BME280;51039;49.696;10.808;2024-01-25T02:44:36;67018.31;;;-144.09;100.00
64078;BME280;51039;49.696;10.808;2024-01-25T02:47:01;67018.31;;;-144.09;100.00
64078;BME280;51039;49.696;10.808;2024-01-25T02:49:26;67018.31;;;-144.09;100.00
64078;BME280;51039;49.696;10.808;2024-01-25T02:51:51;67018.31;;;-144.09;100.00
64078;BME280;51039;49.696;10.808;2024-01-25T02:54:16;67018.31;;;-144.09;100.00
64078;BME280;51039;49.696;10.808;2024-01-25T02:56:41;67018.31;;;-144.09;100.00
64078;BME280;51039;49.696;10.808;2024-01-25T02:59:08;67018.31;;;-144.09;100.00
64078;BME280;51039;49.696;10.808;2024-01-25T03:01:40;67018.31;;;-144.09;100.00
64078;BME280;51039;49.696;10.808;2024-01-25T03:04:06;67018.31;;;-144.09;100.00
64078;BME280;51039;49.696;10.808;2024-01-25T03:06:31;67018.31;;;-144.09;100.00
64078;BME280;51039;49.696;10.808;2024-01-25T03:08:56;67018.31;;;-144.09;100.00
64078;BME280;51039;49.696;10.808;2024-01-25T03:11:22;67018.31;;;-144.09;100.00
64078;BME280;51039;49.696;10.808;2024-01-25T03:13:47;67018.31;;;-144.09;100.00
64078;BME280;51039;49.696;10.808;2024-01-25T03:16:12;67018.31;;;-144.09;100.00
64078;BME280;51039;49.696;10.808;2024-01-25T03:18:37;67018.31;;;-144.09;100.00
64078;BME280;51039;49.696;10.808;2024-01-25T03:21:02;67018.31;;;-144.09;100.00
64078;BME280;51039;49.696;10.808;2024-01-25T03:23:27;67018.31;;;-144.09;100.00
64078;BME280;51039;49.696;10.808;2024-01-25T03:25:53;67018.31;;;-144.09;100.00
64078;BME280;51039;49.696;10.808;2024-01-25T03:28:18;67018.31;;;-144.09;100.00
64078;BME280;51039;49.696;10.808;2024-01-25T03:30:43;67018.31;;;-144.09;100.00
64078;BME280;51039;49.696;10.808;2024-01-25T03:33:08;67018.31;;;-144.09;100.00
64078;BME280;51039;49.696;10.808;2024-01-25T03:35:34;67018.31;;;-144.09;100.00
64078;BME280;51039;49.696;10.808;2024-01-25T03:37:59;67018.31;;;-144.09;100.00
64078;BME280;51039;49.696;10.808;2024-01-25T03:40:24;67018.31;;;-144.09;100.00
64078;BME280;51039;49.696;10.808;2024-01-25T03:42:49;67018.31;;;-144.09;100.00
64078;BME280;51039;49.696;10.808;2024-01-25T03:45:14;67018.31;;;-144.09;100.00
64078;BME280;51039;49.696;10.808;2024-01-25T03:47:39;67018.31;;;-144.09;100.00
64078;BME280;51039;49.696;10.808;2024-01-25T03:50:05;67018.31;;;-144.09;100.00
64078;BME280;51039;49.696;10.808;2024-01-25T03:52:31;67018.31;;;-144.09;100.00
64078;BME280;51039;49.696;10.808;2024-01-25T03:54:56;67018.31;;;-144.09;100.00
64078;BME280;51039;49.696;10.808;2024-01-25T03:57:22;67018.31;;;-144.09;100.00
64078;BME280;51039;49.696;10.808;2024-01-25T03:59:47;67018.31;;;-144.09;100.00
64078;BME280;51039;49.696;10.808;2024-01-25T04:02:12;67018.31;;;-144.09;100.00
64078;BME280;51039;49.696;10.808;2024-01-25T04:04:37;67018.31;;;-144.09;100.00
64078;BME280;51039;49.696;10.808;2024-01-25T04:07:02;67018.31;;;-144.09;100.00
64078;BME280;51039;49.696;10.808;2024-01-25T04:09:28;67018.31;;;-144.09;100.00
64078;BME280;51039;49.696;10.808;2024-01-25T04:11:53;67018.31;;;-144.09;100.00
64078;BME280;51039;49.696;10.808;2024-01-25T04:14:18;67018.31;;;-144.09;100.00
64078;BME280;51039;49.696;10.808;2024-01-25T04:16:43;67018.31;;;-144.09;100.00
64078;BME280;51039;49.696;10.808;2024-01-25T04:19:11;67018.31;;;-144.09;100.00
64078;BME280;51039;49.696;10.808;2024-01-25T04:21:37;67018.31;;;-144.09;100.00
64078;BME280;51039;49.696;10.808;2024-01-25T04:24:03;67018.31;;;-144.09;100.00
64078;BME280;51039;49.696;10.808;2024-01-25T04:26:29;67018.31;;;-144.09;100.00
64078;BME280;51039;49.696;10.808;2024-01-25T04:28:54;67018.31;;;-144.09;100.00
64078;BME280;51039;49.696;10.808;2024-01-25T04:31:19;67018.31;;;-144.09;100.00
64078;BME280;51039;49.696;10.808;2024-01-25T04:33:44;67018.31;;;-144.09;100.00
64078;BME280;51039;49.696;10.808;2024-01-25T04:36:09;67018.31;;;-144.09;100.00
64078;BME280;51039;49.696;10.808;2024-01-25T04:38:35;67018.31;;;-144.09;100.00
64078;BME280;51039;49.696;10.808;2024-01-25T04:41:00;67018.31;;;-144.09;100.00
64078;BME280;51039;49.696;10.808;2024-01-25T04:43:25;67018.31;;;-144.09;100.00
64078;BME280;51039;49.696;10.808;2024-01-25T04:45:50;67018.31;;;-144.09;100.00
64078;BME280;51039;49.696;10.808;2024-01-25T04:48:16;67018.31;;;-144.09;100.00
64078;BME280;51039;49.696;10.808;2024-01-25T04:50:41;67018.31;;;-144.09;100.00
64078;BME280;51039;49.696;10.808;2024-01-25T04:53:06;67018.31;;;-144.09;100.00
64078;BME280;51039;49.696;10.808;2024-01-25T04:55:31;67018.31;;;-144.09;100.00
64078;BME280;51039;49.696;10.808;2024-01-25T04:57:56;67018.31;;;-144.09;100.00
64078;BME280;51039;49.696;10.808;2024-01-25T05:00:22;67018.31;;;-144.09;100.00
64078;BME280;51039;49.696;10.808;2024-01-25T05:02:47;67018.31;;;-144.09;100.00
64078;BME280;51039;49.696;10.808;2024-01-25T05:05:13;67018.31;;;-144.09;100.00
64078;BME280;51039;49.696;10.808;2024-01-25T05:07:38;67018.31;;;-144.09;100.00
64078;BME280;51039;49.696;10.808;2024-01-25T05:10:03;67018.31;;;-144.09;100.00
64078;BME280;51039;49.696;10.808;2024-01-25T05:12:29;67018.31;;;-144.09;100.00
64078;BME280;51039;49.696;10.808;2024-01-25T05:14:54;67018.31;;;-144.09;100.00
64078;BME280;51039;49.696;10.808;2024-01-25T05:17:19;67018.31;;;-144.09;100.00
64078;BME280;51039;49.696;10.808;2024-01-25T05:19:44;67018.31;;;-144.09;100.00
64078;BME280;51039;49.696;10.808;2024-01-25T05:22:10;67018.31;;;-144.09;100.00
64078;BME280;51039;49.696;10.808;2024-01-25T05:24:35;67018.31;;;-144.09;100.00
64078;BME280;51039;49.696;10.808;2024-01-25T05:27:00;67018.31;;;-144.09;100.00
64078;BME280;51039;49.696;10.808;2024-01-25T05:29:25;67018.31;;;-144.09;100.00
64078;BME280;51039;49.696;10.808;2024-01-25T05:31:50;67018.31;;;-144.09;100.00
64078;BME280;51039;49.696;10.808;2024-01-25T05:34:16;67018.31;;;-144.09;100.00
64078;BME280;51039;49.696;10.808;2024-01-25T05:36:41;67018.31;;;-144.09;100.00
64078;BME280;51039;49.696;10.808;2024-01-25T05:39:06;67018.31;;;-144.09;100.00
64078;BME280;51039;49.696;10.808;2024-01-25T05:41:32;67018.31;;;-144.09;100.00
64078;BME280;51039;49.696;10.808;2024-01-25T05:43:58;67018.31;;;-144.09;100.00
64078;BME280;51039;49.696;10.808;2024-01-25T05:46:23;67018.31;;;-144.09;100.00
64078;BME280;51039;49.696;10.808;2024-01-25T05:48:48;67018.31;;;-144.09;100.00
64078;BME280;51039;49.696;10.808;2024-01-25T05:51:13;67018.31;;;-144.09;100.00
64078;BME280;51039;49.696;10.808;2024-01-25T05:53:39;67018.31;;;-144.09;100.00
64078;BME280;51039;49.696;10.808;2024-01-25T05:56:04;67018.31;;;-144.09;100.00
64078;BME280;51039;49.696;10.808;2024-01-25T05:58:29;67018.31;;;-144.09;100.00
64078;BME280;51039;49.696;10.808;2024-01-25T06:00:54;67018.31;;;-144.09;100.00
64078;BME280;51039;49.696;10.808;2024-01-25T06:03:19;67018.31;;;-144.09;100.00
64078;BME280;51039;49.696;10.808;2024-01-25T06:05:45;67018.31;;;-144.09;100.00
64078;BME280;51039;49.696;10.808;2024-01-25T06:08:10;67018.31;;;-144.09;100.00
64078;BME280;51039;49.696;10.808;2024-01-25T06:10:35;67018.31;;;-144.09;100.00
64078;BME280;51039;49.696;10.808;2024-01-25T06:13:00;67018.31;;;-144.09;100.00
64078;BME280;51039;49.696;10.808;2024-01-25T06:15:26;67018.31;;;-144.09;100.00
64078;BME280;51039;49.696;10.808;2024-01-25T06:17:51;67018.31;;;-144.09;100.00
64078;BME280;51039;49.696;10.808;2024-01-25T06:20:16;67018.31;;;-144.09;100.00
64078;BME280;51039;49.696;10.808;2024-01-25T06:22:41;67018.31;;;-144.09;100.00
64078;BME280;51039;49.696;10.808;2024-01-25T06:25:06;67018.31;;;-144.09;100.00
64078;BME280;51039;49.696;10.808;2024-01-25T06:27:32;67018.31;;;-144.09;100.00
64078;BME280;51039;49.696;10.808;2024-01-25T06:29:57;67018.31;;;-144.09;100.00
64078;BME280;51039;49.696;10.808;2024-01-25T06:32:22;67018.31;;;-144.09;100.00
64078;BME280;51039;49.696;10.808;2024-01-25T06:34:48;67018.31;;;-144.09;100.00
64078;BME280;51039;49.696;10.808;2024-01-25T06:37:13;67018.31;;;-144.09;100.00
64078;BME280;51039;49.696;10.808;2024-01-25T06:39:41;67018.31;;;-144.09;100.00
64078;BME280;51039;49.696;10.808;2024-01-25T06:42:06;67018.31;;;-144.09;100.00
64078;BME280;51039;49.696;10.808;2024-01-25T06:44:31;67018.31;;;-144.09;100.00
64078;BME280;51039;49.696;10.808;2024-01-25T06:46:57;67018.31;;;-144.09;100.00
64078;BME280;51039;49.696;10.808;2024-01-25T06:49:22;67018.31;;;-144.09;100.00
64078;BME280;51039;49.696;10.808;2024-01-25T06:51:47;67018.31;;;-144.09;100.00
64078;BME280;51039;49.696;10.808;2024-01-25T06:54:12;67018.31;;;-144.09;100.00
64078;BME280;51039;49.696;10.808;2024-01-25T06:56:37;67018.31;;;-144.09;100.00
64078;BME280;51039;49.696;10.808;2024-01-25T06:59:03;67018.31;;;-144.09;100.00
64078;BME280;51039;49.696;10.808;2024-01-25T07:01:28;67018.31;;;-144.09;100.00
64078;BME280;51039;49.696;10.808;2024-01-25T07:03:55;67018.31;;;-144.09;100.00
64078;BME280;51039;49.696;10.808;2024-01-25T07:06:20;67018.31;;;-144.09;100.00
64078;BME280;51039;49.696;10.808;2024-01-25T07:08:46;67018.31;;;-144.09;100.00
64078;BME280;51039;49.696;10.808;2024-01-25T07:11:11;67018.31;;;-144.09;100.00
64078;BME280;51039;49.696;10.808;2024-01-25T07:13:36;67018.31;;;-144.09;100.00
64078;BME280;51039;49.696;10.808;2024-01-25T07:16:01;67018.31;;;-144.09;100.00
64078;BME280;51039;49.696;10.808;2024-01-25T07:18:27;67018.31;;;-144.09;100.00
64078;BME280;51039;49.696;10.808;2024-01-25T07:20:52;67018.31;;;-144.09;100.00
64078;BME280;51039;49.696;10.808;2024-01-25T07:23:17;67018.31;;;-144.09;100.00
64078;BME280;51039;49.696;10.808;2024-01-25T07:25:43;67018.31;;;-144.09;100.00
64078;BME280;51039;49.696;10.808;2024-01-25T07:28:08;67018.31;;;-144.09;100.00
64078;BME280;51039;49.696;10.808;2024-01-25T07:30:33;67018.31;;;-144.09;100.00
64078;BME280;51039;49.696;10.808;2024-01-25T07:32:58;67018.31;;;-144.09;100.00
64078;BME280;51039;49.696;10.808;2024-01-25T07:35:24;67018.31;;;-144.09;100.00
64078;BME280;51039;49.696;10.808;2024-01-25T07:37:49;67018.31;;;-144.09;100.00
64078;BME280;51039;49.696;10.808;2024-01-25T07:40:21;99530.88;;;4.45;100.00
64078;BME280;51039;49.696;10.808;2024-01-25T07:42:46;99537.50;;;4.40;100.00
64078;BME280;51039;49.696;10.808;2024-01-25T07:45:12;99540.00;;;4.41;100.00
64078;BME280;51039;49.696;10.808;2024-01-25T07:47:38;99542.63;;;4.51;100.00
64078;BME280;51039;49.696;10.808;2024-01-25T07:50:06;99546.38;;;4.48;100.00
64078;BME280;51039;49.696;10.808;2024-01-25T07:52:31;99542.34;;;4.54;100.00
64078;BME280;51039;49.696;10.808;2024-01-25T07:54:57;99537.66;;;4.58;100.00
64078;BME280;51039;49.696;10.808;2024-01-25T07:57:22;99546.78;;;4.63;100.00
64078;BME280;51039;49.696;10.808;2024-01-25T07:59:47;99548.19;;;4.67;100.00
64078;BME280;51039;49.696;10.808;2024-01-25T08:02:12;99549.16;;;4.66;100.00
64078;BME280;51039;49.696;10.808;2024-01-25T08:04:38;99549.59;;;4.71;100.00
64078;BME280;51039;49.696;10.808;2024-01-25T08:07:03;99538.25;;;4.81;100.00
64078;BME280;51039;49.696;10.808;2024-01-25T08:09:28;99538.56;;;4.87;100.00
64078;BME280;51039;49.696;10.808;2024-01-25T08:11:54;99535.50;;;4.92;100.00
64078;BME280;51039;49.696;10.808;2024-01-25T08:14:19;99540.50;;;4.95;100.00
64078;BME280;51039;49.696;10.808;2024-01-25T08:16:44;99552.13;;;5.12;100.00
64078;BME280;51039;49.696;10.808;2024-01-25T08:19:10;99560.69;;;5.24;100.00
64078;BME280;51039;49.696;10.808;2024-01-25T08:21:35;99558.44;;;5.29;100.00
64078;BME280;51039;49.696;10.808;2024-01-25T08:24:01;99562.63;;;5.31;100.00
64078;BME280;51039;49.696;10.808;2024-01-25T08:26:27;99565.50;;;5.38;100.00
64078;BME280;51039;49.696;10.808;2024-01-25T08:28:52;99561.06;;;5.48;100.00
64078;BME280;51039;49.696;10.808;2024-01-25T08:31:17;99556.75;;;5.67;100.00
64078;BME280;51039;49.696;10.808;2024-01-25T08:33:43;99552.53;;;6.03;100.00
64078;BME280;51039;49.696;10.808;2024-01-25T08:36:13;99544.03;;;6.47;100.00
64078;BME280;51039;49.696;10.808;2024-01-25T08:38:41;99542.94;;;6.85;99.87
64078;BME280;51039;49.696;10.808;2024-01-25T08:41:06;99543.16;;;7.10;97.60
64078;BME280;51039;49.696;10.808;2024-01-25T08:43:32;99548.44;;;7.28;95.35
64078;BME280;51039;49.696;10.808;2024-01-25T08:45:57;99547.88;;;7.60;93.57
64078;BME280;51039;49.696;10.808;2024-01-25T08:48:23;99545.56;;;7.65;91.58
64078;BME280;51039;49.696;10.808;2024-01-25T08:50:48;99551.69;;;7.66;91.08
64078;BME280;51039;49.696;10.808;2024-01-25T08:53:18;99561.06;;;8.21;88.75
64078;BME280;51039;49.696;10.808;2024-01-25T08:55:43;99567.31;;;8.54;85.56
64078;BME280;51039;49.696;10.808;2024-01-25T08:58:09;99567.19;;;8.56;85.40
64078;BME280;51039;49.696;10.808;2024-01-25T09:00:34;99571.34;;;8.67;84.91
64078;BME280;51039;49.696;10.808;2024-01-25T09:02:59;99570.06;;;8.87;82.93
64078;BME280;51039;49.696;10.808;2024-01-25T09:05:25;99578.59;;;8.64;83.05
64078;BME280;51039;49.696;10.808;2024-01-25T09:07:53;99579.66;;;8.96;82.12
64078;BME280;51039;49.696;10.808;2024-01-25T09:10:18;99580.69;;;9.03;81.06
64078;BME280;51039;49.696;10.808;2024-01-25T09:12:44;99576.88;;;8.98;80.75
64078;BME280;51039;49.696;10.808;2024-01-25T09:15:10;99569.47;;;9.26;78.87
64078;BME280;51039;49.696;10.808;2024-01-25T09:17:36;99582.03;;;9.57;77.14
64078;BME280;51039;49.696;10.808;2024-01-25T09:20:01;99571.78;;;9.62;77.02
64078;BME280;51039;49.696;10.808;2024-01-25T09:22:28;99572.13;;;9.42;76.96
64078;BME280;51039;49.696;10.808;2024-01-25T09:24:53;99581.78;;;10.08;75.24
64078;BME280;51039;49.696;10.808;2024-01-25T09:27:18;99597.88;;;9.90;74.57
64078;BME280;51039;49.696;10.808;2024-01-25T09:29:44;99586.81;;;9.78;75.13
64078;BME280;51039;49.696;10.808;2024-01-25T09:32:09;99586.97;;;9.19;76.89
64078;BME280;51039;49.696;10.808;2024-01-25T09:34:36;99592.25;;;9.11;79.84
64078;BME280;51039;49.696;10.808;2024-01-25T09:37:02;99593.59;;;9.56;75.75
64078;BME280;51039;49.696;10.808;2024-01-25T09:39:27;99596.41;;;9.54;76.47
64078;BME280;51039;49.696;10.808;2024-01-25T09:41:53;99597.22;;;9.79;75.36
64078;BME280;51039;49.696;10.808;2024-01-25T09:44:18;99599.72;;;9.73;74.93
64078;BME280;51039;49.696;10.808;2024-01-25T09:46:43;99599.38;;;9.59;73.69
64078;BME280;51039;49.696;10.808;2024-01-25T09:49:10;99605.16;;;9.96;72.41
64078;BME280;51039;49.696;10.808;2024-01-25T09:51:37;99602.03;;;9.76;73.71
64078;BME280;51039;49.696;10.808;2024-01-25T09:54:04;99612.63;;;9.84;74.33
64078;BME280;51039;49.696;10.808;2024-01-25T09:56:31;99607.63;;;9.97;73.17
64078;BME280;51039;49.696;10.808;2024-01-25T09:58:58;99605.31;;;9.94;73.63
64078;BME280;51039;49.696;10.808;2024-01-25T10:01:23;99600.78;;;10.19;69.71
64078;BME280;51039;49.696;10.808;2024-01-25T10:03:49;99600.78;;;10.36;68.71
64078;BME280;51039;49.696;10.808;2024-01-25T10:06:15;99606.09;;;10.36;67.73
64078;BME280;51039;49.696;10.808;2024-01-25T10:08:41;99606.66;;;9.90;68.93
64078;BME280;51039;49.696;10.808;2024-01-25T10:11:07;99613.44;;;9.43;71.25
64078;BME280;51039;49.696;10.808;2024-01-25T10:13:43;99609.47;;;9.39;70.93
64078;BME280;51039;49.696;10.808;2024-01-25T10:16:13;99605.84;;;9.24;72.22
64078;BME280;51039;49.696;10.808;2024-01-25T10:18:40;99599.56;;;9.58;71.09
64078;BME280;51039;49.696;10.808;2024-01-25T10:21:08;99590.28;;;9.13;72.01
64078;BME280;51039;49.696;10.808;2024-01-25T10:23:34;99597.88;;;9.08;71.38
64078;BME280;51039;49.696;10.808;2024-01-25T10:26:00;99580.38;;;9.15;70.88
64078;BME280;51039;49.696;10.808;2024-01-25T10:28:25;99579.34;;;8.99;71.40
64078;BME280;51039;49.696;10.808;2024-01-25T10:30:55;99583.53;;;9.18;71.45
64078;BME280;51039;49.696;10.808;2024-01-25T10:33:21;99594.09;;;9.27;69.64
64078;BME280;51039;49.696;10.808;2024-01-25T10:35:47;99589.94;;;9.08;69.18
64078;BME280;51039;49.696;10.808;2024-01-25T10:38:16;99595.75;;;9.28;68.24
64078;BME280;51039;49.696;10.808;2024-01-25T10:40:42;99594.25;;;9.33;65.88
64078;BME280;51039;49.696;10.808;2024-01-25T10:43:08;99594.41;;;9.56;66.75
64078;BME280;51039;49.696;10.808;2024-01-25T10:45:34;99584.50;;;9.91;66.76
64078;BME280;51039;49.696;10.808;2024-01-25T10:47:59;99594.56;;;9.79;66.64
64078;BME280;51039;49.696;10.808;2024-01-25T10:50:24;99583.31;;;9.94;65.94
64078;BME280;51039;49.696;10.808;2024-01-25T10:52:50;99589.06;;;10.14;65.34
64078;BME280;51039;49.696;10.808;2024-01-25T10:55:16;99586.72;;;10.35;65.08
64078;BME280;51039;49.696;10.808;2024-01-25T10:57:42;99588.91;;;10.07;64.71
64078;BME280;51039;49.696;10.808;2024-01-25T11:00:10;99585.16;;;9.77;65.99
64078;BME280;51039;49.696;10.808;2024-01-25T11:02:37;99589.81;;;9.42;67.96
64078;BME280;51039;49.696;10.808;2024-01-25T11:05:22;99588.66;;;9.28;67.73
64078;BME280;51039;49.696;10.808;2024-01-25T11:07:48;99574.59;;;9.28;67.59
64078;BME280;51039;49.696;10.808;2024-01-25T11:10:16;99583.00;;;9.15;68.63
64078;BME280;51039;49.696;10.808;2024-01-25T11:12:59;99587.63;;;9.13;68.03
64078;BME280;51039;49.696;10.808;2024-01-25T11:15:32;99573.91;;;9.26;68.15
64078;BME280;51039;49.696;10.808;2024-01-25T11:18:00;99583.34;;;9.36;68.63
64078;BME280;51039;49.696;10.808;2024-01-25T11:20:27;99588.50;;;9.30;68.32
64078;BME280;51039;49.696;10.808;2024-01-25T11:22:57;99587.19;;;9.58;67.60
64078;BME280;51039;49.696;10.808;2024-01-25T11:25:33;99587.31;;;9.40;69.11
64078;BME280;51039;49.696;10.808;2024-01-25T11:28:00;99574.06;;;9.16;68.21
64078;BME280;51039;49.696;10.808;2024-01-25T11:30:28;99575.41;;;9.12;68.02
64078;BME280;51039;49.696;10.808;2024-01-25T11:32:55;99576.41;;;9.27;68.22
64078;BME280;51039;49.696;10.808;2024-01-25T11:35:21;99573.09;;;9.25;69.94
64078;BME280;51039;49.696;10.808;2024-01-25T11:37:47;99559.38;;;9.21;69.32
64078;BME280;51039;49.696;10.808;2024-01-25T11:40:13;99554.28;;;9.28;69.20
64078;BME280;51039;49.696;10.808;2024-01-25T11:42:40;99563.69;;;9.14;68.79
64078;BME280;51039;49.696;10.808;2024-01-25T11:45:08;99559.56;;;9.28;69.64
64078;BME280;51039;49.696;10.808;2024-01-25T11:47:36;99558.72;;;9.44;69.57
64078;BME280;51039;49.696;10.808;2024-01-25T11:50:02;99553.63;;;9.51;70.34
64078;BME280;51039;49.696;10.808;2024-01-25T11:52:28;99559.19;;;9.64;68.37
64078;BME280;51039;49.696;10.808;2024-01-25T11:54:53;99553.94;;;9.56;69.08
64078;BME280;51039;49.696;10.808;2024-01-25T11:57:19;99556.25;;;9.26;69.35
64078;BME280;51039;49.696;10.808;2024-01-25T11:59:45;99552.13;;;9.40;67.51
64078;BME280;51039;49.696;10.808;2024-01-25T12:02:14;99559.22;;;9.23;66.20
64078;BME280;51039;49.696;10.808;2024-01-25T12:04:39;99551.94;;;9.09;65.45
64078;BME280;51039;49.696;10.808;2024-01-25T12:07:05;99548.81;;;9.21;65.31
64078;BME280;51039;49.696;10.808;2024-01-25T12:09:30;99565.31;;;9.15;65.32
64078;BME280;51039;49.696;10.808;2024-01-25T12:11:56;99561.53;;;9.26;66.35
64078;BME280;51039;49.696;10.808;2024-01-25T12:14:23;99563.88;;;9.37;66.62
64078;BME280;51039;49.696;10.808;2024-01-25T12:16:49;99564.50;;;9.07;67.47
64078;BME280;51039;49.696;10.808;2024-01-25T12:19:14;99560.69;;;9.17;67.90
64078;BME280;51039;49.696;10.808;2024-01-25T12:21:40;99567.00;;;9.24;66.91
64078;BME280;51039;49.696;10.808;2024-01-25T12:24:08;99565.47;;;9.14;67.90
64078;BME280;51039;49.696;10.808;2024-01-25T12:26:34;99567.31;;;9.21;67.57
64078;BME280;51039;49.696;10.808;2024-01-25T12:29:00;99568.81;;;9.24;66.45
64078;BME280;51039;49.696;10.808;2024-01-25T12:31:25;99566.66;;;9.11;66.62